sensor_id;sensor_type;location;lat;lon;timestamp;P1;durP1;ratioP1;P2;durP2;ratioP2
77160;SDS011;66135;0.000;0.000;2023-03-14T00:01:45;0.90;;;0.47;;
77160;SDS011;66135;0.000;0.000;2023-03-14T00:04:11;1.38;;;0.47;;
77160;SDS011;66135;0.000;0.000;2023-03-14T00:06:36;0.90;;;0.00;;
77160;SDS011;66135;0.000;0.000;2023-03-14T00:09:01;0.45;;;0.30;;
77160;SDS011;66135;0.000;0.000;2023-03-14T00:11:27;1.58;;;0.50;;
77160;SDS011;66135;0.000;0.000;2023-03-14T00:14:02;0.70;;;0.40;;
77160;SDS011;66135;0.000;0.000;2023-03-14T00:16:28;1.42;;;0.50;;
77160;SDS011;66135;0.000;0.000;2023-03-14T00:18:53;0.75;;;0.75;;
77160;SDS011;66135;0.000;0.000;2023-03-14T00:21:18;1.67;;;0.63;;
77160;SDS011;66135;0.000;0.000;2023-03-14T00:23:44;0.68;;;0.50;;
77160;SDS011;66135;0.000;0.000;2023-03-14T00:26:13;0.73;;;0.30;;
77160;SDS011;66135;0.000;0.000;2023-03-14T00:28:41;1.45;;;0.85;;
77160;SDS011;66135;0.000;0.000;2023-03-14T00:31:08;1.40;;;0.90;;
77160;SDS011;66135;0.000;0.000;2023-03-14T00:33:43;0.77;;;0.00;;
77160;SDS011;66135;0.000;0.000;2023-03-14T00:36:10;1.58;;;1.08;;
77160;SDS011;66135;0.000;0.000;2023-03-14T00:38:38;0.60;;;0.55;;
77160;SDS011;66135;0.000;0.000;2023-03-14T00:41:05;1.77;;;0.50;;
77160;SDS011;66135;0.000;0.000;2023-03-14T00:43:32;1.08;;;0.80;;
77160;SDS011;66135;0.000;0.000;2023-03-14T00:45:57;2.22;;;0.68;;
77160;SDS011;66135;0.000;0.000;2023-03-14T00:48:22;2.10;;;1.70;;
77160;SDS011;66135;0.000;0.000;2023-03-14T00:50:48;1.35;;;0.10;;
77160;SDS011;66135;0.000;0.000;2023-03-14T00:53:15;1.05;;;0.60;;
77160;SDS011;66135;0.000;0.000;2023-03-14T00:55:41;0.70;;;0.65;;
77160;SDS011;66135;0.000;0.000;2023-03-14T00:58:07;0.80;;;0.38;;
77160;SDS011;66135;0.000;0.000;2023-03-14T01:00:33;1.35;;;0.40;;
77160;SDS011;66135;0.000;0.000;2023-03-14T01:03:08;0.85;;;0.85;;
77160;SDS011;66135;0.000;0.000;2023-03-14T01:05:52;0.63;;;0.60;;
77160;SDS011;66135;0.000;0.000;2023-03-14T01:08:17;1.17;;;0.98;;
77160;SDS011;66135;0.000;0.000;2023-03-14T01:10:43;0.50;;;0.50;;
77160;SDS011;66135;0.000;0.000;2023-03-14T01:13:09;0.60;;;0.50;;
77160;SDS011;66135;0.000;0.000;2023-03-14T01:15:34;1.35;;;0.47;;
77160;SDS011;66135;0.000;0.000;2023-03-14T01:18:01;0.65;;;0.47;;
77160;SDS011;66135;0.000;0.000;2023-03-14T01:20:27;0.88;;;0.88;;
77160;SDS011;66135;0.000;0.000;2023-03-14T01:22:52;1.40;;;0.55;;
77160;SDS011;66135;0.000;0.000;2023-03-14T01:25:17;1.92;;;0.65;;
77160;SDS011;66135;0.000;0.000;2023-03-14T01:27:43;1.30;;;0.52;;
77160;SDS011;66135;0.000;0.000;2023-03-14T01:30:10;1.17;;;0.68;;
77160;SDS011;66135;0.000;0.000;2023-03-14T01:32:37;1.63;;;0.52;;
77160;SDS011;66135;0.000;0.000;2023-03-14T01:35:03;0.55;;;0.30;;
77160;SDS011;66135;0.000;0.000;2023-03-14T01:37:29;1.45;;;1.10;;
77160;SDS011;66135;0.000;0.000;2023-03-14T01:39:54;0.85;;;0.52;;
77160;SDS011;66135;0.000;0.000;2023-03-14T01:42:20;0.65;;;0.20;;
77160;SDS011;66135;0.000;0.000;2023-03-14T01:44:49;4.10;;;0.93;;
77160;SDS011;66135;0.000;0.000;2023-03-14T01:47:15;1.50;;;0.63;;
77160;SDS011;66135;0.000;0.000;2023-03-14T01:49:41;1.15;;;0.45;;
77160;SDS011;66135;0.000;0.000;2023-03-14T01:52:08;0.63;;;0.60;;
77160;SDS011;66135;0.000;0.000;2023-03-14T01:55:07;1.15;;;0.63;;
77160;SDS011;66135;0.000;0.000;2023-03-14T01:57:37;1.20;;;0.45;;
77160;SDS011;66135;0.000;0.000;2023-03-14T02:00:12;0.50;;;0.30;;
77160;SDS011;66135;0.000;0.000;2023-03-14T02:05:08;0.80;;;0.60;;
77160;SDS011;66135;0.000;0.000;2023-03-14T02:07:37;0.70;;;0.60;;
77160;SDS011;66135;0.000;0.000;2023-03-14T02:10:09;0.68;;;0.60;;
77160;SDS011;66135;0.000;0.000;2023-03-14T02:12:35;0.60;;;0.60;;
77160;SDS011;66135;0.000;0.000;2023-03-14T02:15:01;0.60;;;0.60;;
77160;SDS011;66135;0.000;0.000;2023-03-14T02:17:26;0.65;;;0.65;;
77160;SDS011;66135;0.000;0.000;2023-03-14T02:22:50;0.82;;;0.82;;
77160;SDS011;66135;0.000;0.000;2023-03-14T02:25:18;1.17;;;0.40;;
77160;SDS011;66135;0.000;0.000;2023-03-14T02:27:51;0.40;;;0.40;;
77160;SDS011;66135;0.000;0.000;2023-03-14T02:30:18;0.47;;;0.00;;
77160;SDS011;66135;0.000;0.000;2023-03-14T02:32:47;0.95;;;0.40;;
77160;SDS011;66135;0.000;0.000;2023-03-14T02:35:16;0.73;;;0.73;;
77160;SDS011;66135;0.000;0.000;2023-03-14T02:38:53;0.90;;;0.60;;
77160;SDS011;66135;0.000;0.000;2023-03-14T02:41:03;0.85;;;0.73;;
77160;SDS011;66135;0.000;0.000;2023-03-14T02:43:28;0.63;;;0.08;;
77160;SDS011;66135;0.000;0.000;2023-03-14T02:45:54;1.58;;;0.75;;
77160;SDS011;66135;0.000;0.000;2023-03-14T02:48:22;1.13;;;0.73;;
77160;SDS011;66135;0.000;0.000;2023-03-14T02:50:52;0.55;;;0.40;;
77160;SDS011;66135;0.000;0.000;2023-03-14T02:53:21;0.47;;;0.20;;
77160;SDS011;66135;0.000;0.000;2023-03-14T02:55:50;0.70;;;0.70;;
77160;SDS011;66135;0.000;0.000;2023-03-14T02:58:16;0.98;;;0.47;;
77160;SDS011;66135;0.000;0.000;2023-03-14T03:00:42;1.27;;;1.17;;
77160;SDS011;66135;0.000;0.000;2023-03-14T03:03:08;1.13;;;0.73;;
77160;SDS011;66135;0.000;0.000;2023-03-14T03:05:33;1.13;;;0.77;;
77160;SDS011;66135;0.000;0.000;2023-03-14T03:08:09;1.02;;;0.15;;
77160;SDS011;66135;0.000;0.000;2023-03-14T03:10:34;2.60;;;1.33;;
77160;SDS011;66135;0.000;0.000;2023-03-14T03:13:00;1.02;;;0.45;;
77160;SDS011;66135;0.000;0.000;2023-03-14T03:15:26;1.02;;;0.63;;
77160;SDS011;66135;0.000;0.000;2023-03-14T03:17:51;0.95;;;0.45;;
77160;SDS011;66135;0.000;0.000;2023-03-14T03:20:17;1.05;;;0.28;;
77160;SDS011;66135;0.000;0.000;2023-03-14T03:22:42;0.40;;;0.40;;
77160;SDS011;66135;0.000;0.000;2023-03-14T03:25:08;0.63;;;0.40;;
77160;SDS011;66135;0.000;0.000;2023-03-14T03:27:34;1.15;;;0.40;;
77160;SDS011;66135;0.000;0.000;2023-03-14T03:30:01;0.63;;;0.40;;
77160;SDS011;66135;0.000;0.000;2023-03-14T03:32:27;0.77;;;0.30;;
77160;SDS011;66135;0.000;0.000;2023-03-14T03:34:52;0.45;;;0.43;;
77160;SDS011;66135;0.000;0.000;2023-03-14T03:37:18;1.00;;;0.50;;
77160;SDS011;66135;0.000;0.000;2023-03-14T03:39:43;0.85;;;0.40;;
77160;SDS011;66135;0.000;0.000;2023-03-14T03:42:09;1.58;;;0.40;;
77160;SDS011;66135;0.000;0.000;2023-03-14T03:44:35;0.63;;;0.63;;
77160;SDS011;66135;0.000;0.000;2023-03-14T03:47:00;0.70;;;0.00;;
77160;SDS011;66135;0.000;0.000;2023-03-14T03:49:30;0.55;;;0.00;;
77160;SDS011;66135;0.000;0.000;2023-03-14T03:51:56;0.55;;;0.55;;
77160;SDS011;66135;0.000;0.000;2023-03-14T03:54:21;0.88;;;0.00;;
77160;SDS011;66135;0.000;0.000;2023-03-14T03:56:47;0.68;;;0.63;;
77160;SDS011;66135;0.000;0.000;2023-03-14T03:59:12;1.30;;;0.77;;
77160;SDS011;66135;0.000;0.000;2023-03-14T04:01:38;0.68;;;0.68;;
77160;SDS011;66135;0.000;0.000;2023-03-14T04:04:03;0.75;;;0.52;;
77160;SDS011;66135;0.000;0.000;2023-03-14T04:06:29;0.38;;;0.38;;
77160;SDS011;66135;0.000;0.000;2023-03-14T04:08:54;1.23;;;0.52;;
77160;SDS011;66135;0.000;0.000;2023-03-14T04:11:20;0.85;;;0.47;;
77160;SDS011;66135;0.000;0.000;2023-03-14T04:13:45;0.32;;;0.32;;
77160;SDS011;66135;0.000;0.000;2023-03-14T04:16:16;0.50;;;0.30;;
77160;SDS011;66135;0.000;0.000;2023-03-14T04:18:44;0.82;;;0.82;;
77160;SDS011;66135;0.000;0.000;2023-03-14T04:21:10;0.35;;;0.10;;
77160;SDS011;66135;0.000;0.000;2023-03-14T04:23:35;0.40;;;0.40;;
77160;SDS011;66135;0.000;0.000;2023-03-14T04:28:26;0.37;;;0.33;;
77160;SDS011;66135;0.000;0.000;2023-03-14T04:30:52;1.00;;;0.90;;
77160;SDS011;66135;0.000;0.000;2023-03-14T04:33:17;0.47;;;0.40;;
77160;SDS011;66135;0.000;0.000;2023-03-14T04:35:43;0.55;;;0.50;;
77160;SDS011;66135;0.000;0.000;2023-03-14T04:38:09;0.80;;;0.00;;
77160;SDS011;66135;0.000;0.000;2023-03-14T04:40:39;0.60;;;0.43;;
77160;SDS011;66135;0.000;0.000;2023-03-14T04:43:05;0.47;;;0.47;;
77160;SDS011;66135;0.000;0.000;2023-03-14T04:45:31;0.85;;;0.47;;
77160;SDS011;66135;0.000;0.000;2023-03-14T04:47:57;0.60;;;0.43;;
77160;SDS011;66135;0.000;0.000;2023-03-14T04:50:22;1.00;;;0.40;;
77160;SDS011;66135;0.000;0.000;2023-03-14T04:52:47;1.35;;;0.75;;
77160;SDS011;66135;0.000;0.000;2023-03-14T04:55:13;0.30;;;0.15;;
77160;SDS011;66135;0.000;0.000;2023-03-14T04:57:38;0.65;;;0.63;;
77160;SDS011;66135;0.000;0.000;2023-03-14T05:00:04;0.65;;;0.30;;
77160;SDS011;66135;0.000;0.000;2023-03-14T05:02:31;0.57;;;0.30;;
77160;SDS011;66135;0.000;0.000;2023-03-14T05:04:57;0.73;;;0.45;;
77160;SDS011;66135;0.000;0.000;2023-03-14T05:07:22;0.80;;;0.50;;
77160;SDS011;66135;0.000;0.000;2023-03-14T05:09:47;1.10;;;0.50;;
77160;SDS011;66135;0.000;0.000;2023-03-14T05:14:39;0.20;;;0.20;;
77160;SDS011;66135;0.000;0.000;2023-03-14T05:17:04;0.82;;;0.52;;
77160;SDS011;66135;0.000;0.000;2023-03-14T05:19:30;1.55;;;0.47;;
77160;SDS011;66135;0.000;0.000;2023-03-14T05:21:56;0.70;;;0.60;;
77160;SDS011;66135;0.000;0.000;2023-03-14T05:24:21;0.70;;;0.30;;
77160;SDS011;66135;0.000;0.000;2023-03-14T05:26:47;0.30;;;0.00;;
77160;SDS011;66135;0.000;0.000;2023-03-14T05:29:12;1.92;;;0.35;;
77160;SDS011;66135;0.000;0.000;2023-03-14T05:31:37;2.78;;;0.55;;
77160;SDS011;66135;0.000;0.000;2023-03-14T05:34:03;1.90;;;0.50;;
77160;SDS011;66135;0.000;0.000;2023-03-14T05:36:28;1.00;;;0.43;;
77160;SDS011;66135;0.000;0.000;2023-03-14T05:38:54;1.80;;;0.45;;
77160;SDS011;66135;0.000;0.000;2023-03-14T05:41:19;0.60;;;0.32;;
77160;SDS011;66135;0.000;0.000;2023-03-14T05:43:44;2.22;;;0.47;;
77160;SDS011;66135;0.000;0.000;2023-03-14T05:46:10;1.50;;;0.68;;
77160;SDS011;66135;0.000;0.000;2023-03-14T05:48:35;0.43;;;0.10;;
77160;SDS011;66135;0.000;0.000;2023-03-14T05:51:01;0.82;;;0.00;;
77160;SDS011;66135;0.000;0.000;2023-03-14T05:53:27;0.85;;;0.00;;
77160;SDS011;66135;0.000;0.000;2023-03-14T05:55:54;0.75;;;0.40;;
77160;SDS011;66135;0.000;0.000;2023-03-14T05:58:20;0.65;;;0.00;;
77160;SDS011;66135;0.000;0.000;2023-03-14T06:00:46;1.00;;;0.45;;
77160;SDS011;66135;0.000;0.000;2023-03-14T06:03:12;0.77;;;0.38;;
77160;SDS011;66135;0.000;0.000;2023-03-14T06:05:38;0.52;;;0.00;;
77160;SDS011;66135;0.000;0.000;2023-03-14T06:08:04;1.00;;;0.50;;
77160;SDS011;66135;0.000;0.000;2023-03-14T06:10:29;3.35;;;0.10;;
77160;SDS011;66135;0.000;0.000;2023-03-14T06:12:54;1.80;;;0.52;;
77160;SDS011;66135;0.000;0.000;2023-03-14T06:15:20;0.85;;;0.52;;
77160;SDS011;66135;0.000;0.000;2023-03-14T06:17:45;0.85;;;0.30;;
77160;SDS011;66135;0.000;0.000;2023-03-14T06:20:11;0.40;;;0.00;;
77160;SDS011;66135;0.000;0.000;2023-03-14T06:22:36;0.70;;;0.55;;
77160;SDS011;66135;0.000;0.000;2023-03-14T06:25:03;1.27;;;0.32;;
77160;SDS011;66135;0.000;0.000;2023-03-14T06:29:55;1.20;;;0.50;;
77160;SDS011;66135;0.000;0.000;2023-03-14T06:32:21;1.52;;;0.70;;
77160;SDS011;66135;0.000;0.000;2023-03-14T06:34:46;0.73;;;0.38;;
77160;SDS011;66135;0.000;0.000;2023-03-14T06:37:11;1.90;;;0.43;;
77160;SDS011;66135;0.000;0.000;2023-03-14T06:39:37;0.68;;;0.38;;
77160;SDS011;66135;0.000;0.000;2023-03-14T06:42:03;1.77;;;0.73;;
77160;SDS011;66135;0.000;0.000;2023-03-14T06:44:29;0.68;;;0.68;;
77160;SDS011;66135;0.000;0.000;2023-03-14T06:46:55;0.60;;;0.50;;
77160;SDS011;66135;0.000;0.000;2023-03-14T06:49:20;0.93;;;0.60;;
77160;SDS011;66135;0.000;0.000;2023-03-14T06:51:46;0.65;;;0.43;;
77160;SDS011;66135;0.000;0.000;2023-03-14T06:54:12;1.70;;;0.00;;
77160;SDS011;66135;0.000;0.000;2023-03-14T06:56:46;1.73;;;0.60;;
77160;SDS011;66135;0.000;0.000;2023-03-14T06:59:11;1.67;;;0.40;;
77160;SDS011;66135;0.000;0.000;2023-03-14T07:01:37;2.22;;;0.28;;
77160;SDS011;66135;0.000;0.000;2023-03-14T07:04:02;1.83;;;0.98;;
77160;SDS011;66135;0.000;0.000;2023-03-14T07:06:28;1.67;;;1.13;;
77160;SDS011;66135;0.000;0.000;2023-03-14T07:08:56;2.88;;;0.57;;
77160;SDS011;66135;0.000;0.000;2023-03-14T07:11:22;1.92;;;0.73;;
77160;SDS011;66135;0.000;0.000;2023-03-14T07:13:48;4.07;;;0.60;;
77160;SDS011;66135;0.000;0.000;2023-03-14T07:16:13;2.67;;;0.50;;
77160;SDS011;66135;0.000;0.000;2023-03-14T07:18:39;1.30;;;0.50;;
77160;SDS011;66135;0.000;0.000;2023-03-14T07:21:08;2.17;;;0.52;;
77160;SDS011;66135;0.000;0.000;2023-03-14T07:23:34;1.35;;;0.03;;
77160;SDS011;66135;0.000;0.000;2023-03-14T07:26:00;0.98;;;0.55;;
77160;SDS011;66135;0.000;0.000;2023-03-14T07:28:25;2.78;;;0.47;;
77160;SDS011;66135;0.000;0.000;2023-03-14T07:30:52;0.93;;;0.45;;
77160;SDS011;66135;0.000;0.000;2023-03-14T07:33:18;2.25;;;0.28;;
77160;SDS011;66135;0.000;0.000;2023-03-14T07:35:43;2.00;;;0.45;;
77160;SDS011;66135;0.000;0.000;2023-03-14T07:38:09;1.30;;;0.00;;
77160;SDS011;66135;0.000;0.000;2023-03-14T07:40:34;1.45;;;0.43;;
77160;SDS011;66135;0.000;0.000;2023-03-14T07:43:00;1.65;;;0.50;;
77160;SDS011;66135;0.000;0.000;2023-03-14T07:45:25;2.78;;;0.68;;
77160;SDS011;66135;0.000;0.000;2023-03-14T07:47:50;1.95;;;0.30;;
77160;SDS011;66135;0.000;0.000;2023-03-14T07:50:16;2.85;;;0.25;;
77160;SDS011;66135;0.000;0.000;2023-03-14T07:52:41;1.58;;;0.85;;
77160;SDS011;66135;0.000;0.000;2023-03-14T07:55:10;0.98;;;0.20;;
77160;SDS011;66135;0.000;0.000;2023-03-14T07:57:35;1.58;;;0.60;;
77160;SDS011;66135;0.000;0.000;2023-03-14T08:00:01;2.35;;;0.57;;
77160;SDS011;66135;0.000;0.000;2023-03-14T08:02:26;1.60;;;0.30;;
77160;SDS011;66135;0.000;0.000;2023-03-14T08:04:51;2.75;;;0.75;;
77160;SDS011;66135;0.000;0.000;2023-03-14T08:07:17;5.88;;;1.23;;
77160;SDS011;66135;0.000;0.000;2023-03-14T08:09:42;4.28;;;0.73;;
77160;SDS011;66135;0.000;0.000;2023-03-14T08:12:08;7.25;;;1.38;;
77160;SDS011;66135;0.000;0.000;2023-03-14T08:14:33;1.60;;;0.50;;
77160;SDS011;66135;0.000;0.000;2023-03-14T08:16:59;0.70;;;0.45;;
77160;SDS011;66135;0.000;0.000;2023-03-14T08:19:24;2.15;;;0.00;;
77160;SDS011;66135;0.000;0.000;2023-03-14T08:21:50;1.48;;;0.20;;
77160;SDS011;66135;0.000;0.000;2023-03-14T08:24:15;4.10;;;0.70;;
77160;SDS011;66135;0.000;0.000;2023-03-14T08:26:41;4.80;;;0.98;;
77160;SDS011;66135;0.000;0.000;2023-03-14T08:29:07;3.78;;;1.00;;
77160;SDS011;66135;0.000;0.000;2023-03-14T08:31:33;4.25;;;0.75;;
77160;SDS011;66135;0.000;0.000;2023-03-14T08:33:59;4.32;;;1.27;;
77160;SDS011;66135;0.000;0.000;2023-03-14T08:36:25;9.00;;;1.23;;
77160;SDS011;66135;0.000;0.000;2023-03-14T08:38:50;6.40;;;1.33;;
77160;SDS011;66135;0.000;0.000;2023-03-14T08:41:16;7.97;;;1.10;;
77160;SDS011;66135;0.000;0.000;2023-03-14T08:43:41;7.20;;;0.90;;
77160;SDS011;66135;0.000;0.000;2023-03-14T08:46:06;5.45;;;1.33;;
77160;SDS011;66135;0.000;0.000;2023-03-14T08:48:32;8.23;;;1.70;;
77160;SDS011;66135;0.000;0.000;2023-03-14T08:51:05;7.80;;;1.90;;
77160;SDS011;66135;0.000;0.000;2023-03-14T08:53:35;10.63;;;1.10;;
77160;SDS011;66135;0.000;0.000;2023-03-14T08:56:09;9.15;;;1.38;;
77160;SDS011;66135;0.000;0.000;2023-03-14T08:58:35;9.75;;;2.10;;
77160;SDS011;66135;0.000;0.000;2023-03-14T09:01:21;7.18;;;0.90;;
77160;SDS011;66135;0.000;0.000;2023-03-14T09:03:49;6.25;;;0.30;;
77160;SDS011;66135;0.000;0.000;2023-03-14T09:06:14;9.70;;;1.48;;
77160;SDS011;66135;0.000;0.000;2023-03-14T09:08:50;9.13;;;1.08;;
77160;SDS011;66135;0.000;0.000;2023-03-14T09:11:16;6.80;;;0.90;;
77160;SDS011;66135;0.000;0.000;2023-03-14T09:13:43;6.57;;;1.20;;
77160;SDS011;66135;0.000;0.000;2023-03-14T09:16:09;7.82;;;0.82;;
77160;SDS011;66135;0.000;0.000;2023-03-14T09:18:34;8.18;;;1.45;;
77160;SDS011;66135;0.000;0.000;2023-03-14T09:21:00;5.15;;;1.95;;
77160;SDS011;66135;0.000;0.000;2023-03-14T09:23:26;7.88;;;2.28;;
77160;SDS011;66135;0.000;0.000;2023-03-14T09:25:58;12.23;;;3.00;;
77160;SDS011;66135;0.000;0.000;2023-03-14T09:30:50;5.78;;;1.27;;
77160;SDS011;66135;0.000;0.000;2023-03-14T09:33:16;8.85;;;2.50;;
77160;SDS011;66135;0.000;0.000;2023-03-14T09:35:42;5.32;;;1.60;;
77160;SDS011;66135;0.000;0.000;2023-03-14T09:38:07;5.28;;;1.10;;
77160;SDS011;66135;0.000;0.000;2023-03-14T09:40:36;5.35;;;1.65;;
77160;SDS011;66135;0.000;0.000;2023-03-14T09:43:02;4.07;;;1.95;;
77160;SDS011;66135;0.000;0.000;2023-03-14T09:45:31;4.30;;;2.95;;
77160;SDS011;66135;0.000;0.000;2023-03-14T09:48:11;3.75;;;1.55;;
77160;SDS011;66135;0.000;0.000;2023-03-14T09:50:50;4.95;;;2.00;;
77160;SDS011;66135;0.000;0.000;2023-03-14T09:53:28;4.97;;;0.82;;
77160;SDS011;66135;0.000;0.000;2023-03-14T09:56:29;5.15;;;1.52;;
77160;SDS011;66135;0.000;0.000;2023-03-14T09:58:57;4.43;;;1.63;;
77160;SDS011;66135;0.000;0.000;2023-03-14T10:01:26;4.85;;;1.30;;
77160;SDS011;66135;0.000;0.000;2023-03-14T10:03:56;6.00;;;1.38;;
77160;SDS011;66135;0.000;0.000;2023-03-14T10:06:31;4.75;;;2.10;;
77160;SDS011;66135;0.000;0.000;2023-03-14T10:08:56;3.85;;;1.42;;
77160;SDS011;66135;0.000;0.000;2023-03-14T10:11:22;4.85;;;0.98;;
77160;SDS011;66135;0.000;0.000;2023-03-14T10:13:50;5.80;;;1.20;;
77160;SDS011;66135;0.000;0.000;2023-03-14T10:16:41;2.47;;;1.27;;
77160;SDS011;66135;0.000;0.000;2023-03-14T10:19:15;4.20;;;1.35;;
77160;SDS011;66135;0.000;0.000;2023-03-14T10:21:44;3.00;;;0.82;;
77160;SDS011;66135;0.000;0.000;2023-03-14T10:24:29;5.53;;;1.05;;
77160;SDS011;66135;0.000;0.000;2023-03-14T10:27:04;3.67;;;1.35;;
77160;SDS011;66135;0.000;0.000;2023-03-14T10:29:32;4.95;;;1.40;;
77160;SDS011;66135;0.000;0.000;2023-03-14T10:32:10;4.65;;;1.30;;
77160;SDS011;66135;0.000;0.000;2023-03-14T10:37:52;4.55;;;1.20;;
77160;SDS011;66135;0.000;0.000;2023-03-14T10:40:27;1.90;;;1.27;;
77160;SDS011;66135;0.000;0.000;2023-03-14T10:43:04;5.78;;;1.65;;
77160;SDS011;66135;0.000;0.000;2023-03-14T10:48:16;2.78;;;1.05;;
77160;SDS011;66135;0.000;0.000;2023-03-14T10:50:57;1.35;;;0.88;;
77160;SDS011;66135;0.000;0.000;2023-03-14T10:56:59;2.58;;;1.05;;
77160;SDS011;66135;0.000;0.000;2023-03-14T10:59:27;3.28;;;0.25;;
77160;SDS011;66135;0.000;0.000;2023-03-14T11:05:13;2.38;;;0.90;;
77160;SDS011;66135;0.000;0.000;2023-03-14T11:08:57;4.85;;;0.82;;
77160;SDS011;66135;0.000;0.000;2023-03-14T11:11:19;4.05;;;1.15;;
77160;SDS011;66135;0.000;0.000;2023-03-14T11:18:57;3.53;;;0.82;;
77160;SDS011;66135;0.000;0.000;2023-03-14T11:29:51;5.10;;;0.90;;
77160;SDS011;66135;0.000;0.000;2023-03-14T11:32:44;8.68;;;1.15;;
77160;SDS011;66135;0.000;0.000;2023-03-14T11:35:23;3.85;;;0.30;;
77160;SDS011;66135;0.000;0.000;2023-03-14T11:40:50;4.55;;;0.30;;
77160;SDS011;66135;0.000;0.000;2023-03-14T11:43:29;1.60;;;0.60;;
77160;SDS011;66135;0.000;0.000;2023-03-14T11:46:28;6.85;;;0.82;;
77160;SDS011;66135;0.000;0.000;2023-03-14T11:51:44;3.10;;;1.13;;
77160;SDS011;66135;0.000;0.000;2023-03-14T11:57:19;3.33;;;0.80;;
77160;SDS011;66135;0.000;0.000;2023-03-14T12:00:04;4.18;;;0.98;;
77160;SDS011;66135;0.000;0.000;2023-03-14T12:13:03;8.48;;;1.30;;
77160;SDS011;66135;0.000;0.000;2023-03-14T12:15:29;2.83;;;0.13;;
77160;SDS011;66135;0.000;0.000;2023-03-14T12:17:55;3.58;;;1.20;;
77160;SDS011;66135;0.000;0.000;2023-03-14T12:20:24;4.85;;;0.90;;
77160;SDS011;66135;0.000;0.000;2023-03-14T12:22:55;5.70;;;1.25;;
77160;SDS011;66135;0.000;0.000;2023-03-14T12:25:27;3.25;;;1.33;;
77160;SDS011;66135;0.000;0.000;2023-03-14T12:28:50;4.88;;;0.90;;
77160;SDS011;66135;0.000;0.000;2023-03-14T12:30:55;3.22;;;0.90;;
77160;SDS011;66135;0.000;0.000;2023-03-14T12:33:26;5.93;;;1.30;;
77160;SDS011;66135;0.000;0.000;2023-03-14T12:36:03;2.72;;;1.20;;
77160;SDS011;66135;0.000;0.000;2023-03-14T12:43:48;5.18;;;0.82;;
77160;SDS011;66135;0.000;0.000;2023-03-14T12:46:19;3.65;;;0.95;;
77160;SDS011;66135;0.000;0.000;2023-03-14T12:48:55;2.50;;;1.10;;
77160;SDS011;66135;0.000;0.000;2023-03-14T12:54:11;1.67;;;0.43;;
77160;SDS011;66135;0.000;0.000;2023-03-14T12:59:33;4.80;;;0.75;;
77160;SDS011;66135;0.000;0.000;2023-03-14T13:04:45;6.88;;;0.40;;
77160;SDS011;66135;0.000;0.000;2023-03-14T13:07:29;5.15;;;0.20;;
77160;SDS011;66135;0.000;0.000;2023-03-14T13:10:19;5.22;;;1.27;;
77160;SDS011;66135;0.000;0.000;2023-03-14T13:12:57;4.22;;;1.08;;
77160;SDS011;66135;0.000;0.000;2023-03-14T13:15:40;4.25;;;1.40;;
77160;SDS011;66135;0.000;0.000;2023-03-14T13:18:11;3.10;;;1.08;;
77160;SDS011;66135;0.000;0.000;2023-03-14T13:26:32;3.72;;;1.10;;
77160;SDS011;66135;0.000;0.000;2023-03-14T13:29:15;5.20;;;0.95;;
77160;SDS011;66135;0.000;0.000;2023-03-14T13:31:44;2.88;;;1.23;;
77160;SDS011;66135;0.000;0.000;2023-03-14T13:34:12;3.95;;;1.10;;
77160;SDS011;66135;0.000;0.000;2023-03-14T13:36:38;2.53;;;1.13;;
77160;SDS011;66135;0.000;0.000;2023-03-14T13:39:06;3.05;;;1.02;;
77160;SDS011;66135;0.000;0.000;2023-03-14T13:41:37;2.75;;;0.95;;
77160;SDS011;66135;0.000;0.000;2023-03-14T13:46:33;2.70;;;1.92;;
77160;SDS011;66135;0.000;0.000;2023-03-14T13:49:11;3.40;;;1.02;;
77160;SDS011;66135;0.000;0.000;2023-03-14T13:51:42;4.03;;;0.90;;
77160;SDS011;66135;0.000;0.000;2023-03-14T13:54:15;4.03;;;0.95;;
77160;SDS011;66135;0.000;0.000;2023-03-14T13:56:42;4.40;;;1.13;;
77160;SDS011;66135;0.000;0.000;2023-03-14T14:01:49;3.03;;;0.75;;
77160;SDS011;66135;0.000;0.000;2023-03-14T14:04:17;2.78;;;0.90;;
77160;SDS011;66135;0.000;0.000;2023-03-14T14:06:47;3.67;;;1.67;;
77160;SDS011;66135;0.000;0.000;2023-03-14T14:09:29;3.35;;;1.05;;
77160;SDS011;66135;0.000;0.000;2023-03-14T14:15:11;4.75;;;0.20;;
77160;SDS011;66135;0.000;0.000;2023-03-14T14:17:46;3.67;;;0.20;;
77160;SDS011;66135;0.000;0.000;2023-03-14T14:23:25;3.97;;;1.27;;
77160;SDS011;66135;0.000;0.000;2023-03-14T14:25:54;3.38;;;1.10;;
77160;SDS011;66135;0.000;0.000;2023-03-14T14:28:29;1.92;;;0.88;;
77160;SDS011;66135;0.000;0.000;2023-03-14T14:31:01;5.28;;;1.25;;
77160;SDS011;66135;0.000;0.000;2023-03-14T14:33:27;4.75;;;0.90;;
77160;SDS011;66135;0.000;0.000;2023-03-14T14:35:57;7.88;;;1.00;;
77160;SDS011;66135;0.000;0.000;2023-03-14T14:38:24;2.80;;;1.10;;
77160;SDS011;66135;0.000;0.000;2023-03-14T14:40:54;3.63;;;0.28;;
77160;SDS011;66135;0.000;0.000;2023-03-14T14:43:40;2.90;;;0.50;;
77160;SDS011;66135;0.000;0.000;2023-03-14T14:46:07;3.05;;;0.13;;
77160;SDS011;66135;0.000;0.000;2023-03-14T14:48:37;2.38;;;1.23;;
77160;SDS011;66135;0.000;0.000;2023-03-14T14:51:04;4.00;;;0.77;;
77160;SDS011;66135;0.000;0.000;2023-03-14T14:53:42;4.30;;;1.15;;
77160;SDS011;66135;0.000;0.000;2023-03-14T14:56:18;3.38;;;1.23;;
77160;SDS011;66135;0.000;0.000;2023-03-14T14:58:59;3.65;;;0.90;;
77160;SDS011;66135;0.000;0.000;2023-03-14T15:01:34;2.33;;;0.95;;
77160;SDS011;66135;0.000;0.000;2023-03-14T15:04:03;2.38;;;0.57;;
77160;SDS011;66135;0.000;0.000;2023-03-14T15:06:34;3.03;;;0.40;;
77160;SDS011;66135;0.000;0.000;2023-03-14T15:08:59;2.20;;;1.08;;
77160;SDS011;66135;0.000;0.000;2023-03-14T15:11:25;1.42;;;1.15;;
77160;SDS011;66135;0.000;0.000;2023-03-14T15:13:51;2.22;;;0.20;;
77160;SDS011;66135;0.000;0.000;2023-03-14T15:16:19;8.00;;;1.98;;
77160;SDS011;66135;0.000;0.000;2023-03-14T15:18:51;2.97;;;1.20;;
77160;SDS011;66135;0.000;0.000;2023-03-14T15:21:36;4.13;;;0.77;;
77160;SDS011;66135;0.000;0.000;2023-03-14T15:24:03;2.33;;;0.77;;
77160;SDS011;66135;0.000;0.000;2023-03-14T15:26:29;2.50;;;0.77;;
77160;SDS011;66135;0.000;0.000;2023-03-14T15:28:55;4.75;;;1.27;;
77160;SDS011;66135;0.000;0.000;2023-03-14T15:31:20;1.20;;;0.20;;
77160;SDS011;66135;0.000;0.000;2023-03-14T15:33:46;2.60;;;0.63;;
77160;SDS011;66135;0.000;0.000;2023-03-14T15:36:20;3.17;;;1.00;;
77160;SDS011;66135;0.000;0.000;2023-03-14T15:38:50;3.13;;;0.55;;
77160;SDS011;66135;0.000;0.000;2023-03-14T15:41:17;2.38;;;0.70;;
77160;SDS011;66135;0.000;0.000;2023-03-14T15:43:44;3.72;;;0.35;;
77160;SDS011;66135;0.000;0.000;2023-03-14T15:46:10;2.55;;;1.02;;
77160;SDS011;66135;0.000;0.000;2023-03-14T15:48:36;2.60;;;1.40;;
77160;SDS011;66135;0.000;0.000;2023-03-14T15:51:02;2.10;;;0.73;;
77160;SDS011;66135;0.000;0.000;2023-03-14T15:53:27;3.92;;;1.15;;
77160;SDS011;66135;0.000;0.000;2023-03-14T15:55:53;4.03;;;1.13;;
77160;SDS011;66135;0.000;0.000;2023-03-14T15:58:19;2.20;;;0.25;;
77160;SDS011;66135;0.000;0.000;2023-03-14T16:00:45;4.75;;;1.95;;
77160;SDS011;66135;0.000;0.000;2023-03-14T16:03:10;5.85;;;2.08;;
77160;SDS011;66135;0.000;0.000;2023-03-14T16:05:37;4.68;;;1.30;;
77160;SDS011;66135;0.000;0.000;2023-03-14T16:08:03;5.78;;;1.30;;
77160;SDS011;66135;0.000;0.000;2023-03-14T16:10:29;3.60;;;1.52;;
77160;SDS011;66135;0.000;0.000;2023-03-14T16:12:55;7.03;;;1.63;;
77160;SDS011;66135;0.000;0.000;2023-03-14T16:15:21;5.00;;;1.45;;
77160;SDS011;66135;0.000;0.000;2023-03-14T16:17:46;3.45;;;1.10;;
77160;SDS011;66135;0.000;0.000;2023-03-14T16:20:12;4.05;;;1.15;;
77160;SDS011;66135;0.000;0.000;2023-03-14T16:22:38;6.05;;;1.90;;
77160;SDS011;66135;0.000;0.000;2023-03-14T16:25:04;2.15;;;1.20;;
77160;SDS011;66135;0.000;0.000;2023-03-14T16:27:30;4.15;;;1.88;;
77160;SDS011;66135;0.000;0.000;2023-03-14T16:29:57;4.20;;;1.38;;
77160;SDS011;66135;0.000;0.000;2023-03-14T16:32:24;2.30;;;0.90;;
77160;SDS011;66135;0.000;0.000;2023-03-14T16:34:50;3.97;;;0.45;;
77160;SDS011;66135;0.000;0.000;2023-03-14T16:37:15;3.65;;;0.90;;
77160;SDS011;66135;0.000;0.000;2023-03-14T16:39:41;2.40;;;0.88;;
77160;SDS011;66135;0.000;0.000;2023-03-14T16:42:06;2.05;;;0.93;;